Aviation Digital Data Service (ADDS)

Output produced by METARs form (1125 UTC 21 April 2021)
found at http://www.aviationweather.gov/metar/data/
 
METAR text: EPGD 211100Z 28013KT 250V310 CAVOK 14/00 Q1008
Conditions at: EPGD (GDANSK/REBIECHOW, PL) observed 1100 UTC 21 April 2021
Temperature: 14.0°C (57°F)
Dewpoint: 0.0°C (32°F) [RH = 38%]
Pressure (altimeter): 29.76 inches Hg (1008.0 mb)
Winds: from the W (280 degrees) at 15 MPH (13 knots; 6.7 m/s)
Visibility: 6 or more miles (10+ km)
Ceiling: ceiling and visibility are OK
Clouds: unknown
Weather: no significant weather observed at this time

METAR text: EPGD 211030Z 29013KT 260V320 CAVOK 15/01 Q1009
Conditions at: EPGD (GDANSK/REBIECHOW, PL) observed 1030 UTC 21 April 2021
Temperature: 15.0°C (59°F)
Dewpoint: 1.0°C (34°F) [RH = 39%]
Pressure (altimeter): 29.79 inches Hg (1009.0 mb)
Winds: from the WNW (290 degrees) at 15 MPH (13 knots; 6.7 m/s)
Visibility: 6 or more miles (10+ km)
Ceiling: ceiling and visibility are OK
Clouds: unknown
Weather: no significant weather observed at this time

Forecast for: EPGD (GDANSK/REBIECHOW, PL)
Text: TAF EPGD 210530Z 2106/2206 VRB02KT CAVOK
Forecast period: 0600 to 0900 UTC 21 April 2021
Forecast type: FROM: standard forecast or significant change
Winds: variable direction winds at 2 MPH (2 knots; 1.0 m/s)
Visibility: 6 or more miles (10+ km)
Ceiling: unknown
Clouds: missing
Weather: NSW  (no significant weather)
Text: BECMG 2109/2112 27010KT
Forecast period: 0900 UTC 21 April 2021 to 0600 UTC 22 April 2021
Forecast type: BECOMING: Conditions expected to become as follows by 1200 UTC 21 April 2021
Winds: from the W (270 degrees) at 12 MPH (10 knots; 5.1 m/s)
Visibility: 6 or more miles (10+ km)
Ceiling: unknown
Clouds: missing
Weather: NSW  (no significant weather)
Text: PROB40
Forecast period: 1200 to 1800 UTC 21 April 2021
Forecast type: TEMPORARY: The following changes expected for less than half the time period
Winds: from the W (280 degrees) at 17 MPH (15 knots; 7.7 m/s)
gusting to 29 MPH (25 knots; 12.9 m/s)
Visibility: missing
Ceiling: unknown
Clouds: missing
Weather: no significant weather forecast for this period